Flight Track Log - Related Links

Times and Time Zones

All times are in EDT time to prevent confusion due to time zone crossing. See the N244A flight status page for this flight to view local times or setup timezone preferences in your user account.

Time Position Orientation Groundspeed Altitude Reporting Facility
EDT Latitude Longitude Course Direction KTS MPH feet Rate Location/Type
Thu 04:52:29 PM 40.5833 -73.8833 235° Southwest 276 318 4,100  Level New TRACON
Thu 04:53:29 PM 40.5000 -73.8833 180° South 292 336 4,100  Level New TRACON
Thu 04:54:23 PM 40.4500 -73.9167 207° Southwest 273 314 4,100  Level New TRACON
Thu 04:55:23 PM 40.3833 -73.9667 210° Southwest 274 315 4,100 -24 Level New TRACON
Thu 04:58:29 PM 40.1667 -74.1167 321° Northwest 265 305 4,000  Descending New TRACON
Thu 04:59:29 PM 40.1167 -74.1667 217° Southwest 260 299 4,100  Climbing New TRACON
Thu 05:00:29 PM 40.1333 -74.2500 285° West 240 276 4,000 -50 Descending New TRACON
Thu 05:01:29 PM 40.1500 -74.3333 285° West 239 275 4,000  Level New TRACON
Thu 05:02:29 PM 40.1833 -74.4167 298° West 236 272 4,000  Level New TRACON
Thu 05:03:23 PM 40.2167 -74.4667 311° West 244 281 4,000  Level New TRACON
Thu 05:04:23 PM 40.2667 -74.5167 323° Northwest 248 285 4,000  Level New TRACON
Thu 05:05:23 PM 40.3333 -74.5333 349° North 250 288 4,000  Level New TRACON
Thu 05:06:23 PM 40.4000 -74.5167 11° North 244 281 4,000  Level New TRACON
Thu 05:07:23 PM 40.4667 -74.5167 360° North 245 282 4,000  Level New TRACON
Thu 05:08:23 PM 40.5333 -74.5167 360° North 241 277 4,000  Level New TRACON
Thu 05:09:23 PM 40.6000 -74.5333 349° North 239 275 4,000 -450 Level New TRACON
Thu 05:10:23 PM 40.6667 -74.5500 349° North 242 278 3,100 -500 Descending New TRACON
Thu 05:11:23 PM 40.7333 -74.5833 339° North 228 262 3,000 -50 Descending New TRACON
Thu 05:12:23 PM 40.8000 -74.6000 349° North 229 264 3,000  Level New TRACON
Thu 05:13:23 PM 40.8500 -74.5500 37° Northeast 254 292 3,000  Level New TRACON
Thu 05:14:17 PM 40.9000 -74.5000 37° Northeast 255 293 3,000  Level New TRACON
Thu 05:15:17 PM 40.9500 -74.4500 37° Northeast 253 291 3,000 -500 Level New TRACON
Thu 05:16:17 PM 40.9500 -74.3500 90° East 272 313 2,000 -500 Descending New TRACON
Thu 05:17:17 PM 40.9167 -74.3167 143° Southeast 179 206 2,000  Level New TRACON
Thu 05:18:17 PM 40.8833 -74.3333 201° Southwest 160 184 2,000 -200 Level New TRACON
Thu 05:19:17 PM 40.8500 -74.3667 217° Southwest 134 154 1,600 -450 Descending New TRACON
Thu 05:20:17 PM 40.8167 -74.3833 201° Southwest 123 142 1,100 -500 Descending New TRACON
Thu 05:22:00 PM 40.7833 -74.4000 168° South  Level FlightAware
Thu 05:29:00 PM 40.7993 -74.4149 168° South  Level Estimated
Thu 05:30:00 PM 40.7993 -74.4149 168° South  Level Estimated
Thu 05:31:00 PM 40.7993 -74.4149 168° South  Level Estimated

Login

Don't have an account? Register now (free) for customized features, flight alerts, and more!